createdAt,value
2019-03-18T00:03:02.675Z,80.59
2019-03-18T00:08:04.192Z,80.57
2019-03-18T00:13:05.800Z,80.26
2019-03-18T00:18:07.344Z,80.03
2019-03-18T00:23:08.825Z,79.79
2019-03-18T00:28:10.364Z,79.95
2019-03-18T00:33:11.900Z,79.35
2019-03-18T00:38:13.526Z,78.91
2019-03-18T00:43:15.167Z,78.89
2019-03-18T00:48:17.096Z,79.03
2019-03-18T00:53:18.619Z,78.95
2019-03-18T00:58:20.156Z,78.76
2019-03-18T01:03:21.672Z,79.07
2019-03-18T01:08:23.223Z,79.51
2019-03-18T01:13:25.101Z,80.11
2019-03-18T01:18:26.588Z,80.20
2019-03-18T01:23:28.131Z,81.40
2019-03-18T01:28:29.737Z,82.64
2019-03-18T01:33:31.558Z,81.69
2019-03-18T01:38:33.765Z,81.42
2019-03-18T01:43:35.615Z,81.53
2019-03-18T01:48:37.125Z,80.96
2019-03-18T01:53:38.651Z,80.70
2019-03-18T01:58:40.596Z,80.61
2019-03-18T02:03:42.559Z,80.60
2019-03-18T02:08:46.690Z,80.01
2019-03-18T02:13:49.097Z,79.80
2019-03-18T02:18:50.662Z,80.47
2019-03-18T02:23:52.242Z,80.57
2019-03-18T02:28:53.808Z,80.97
2019-03-18T02:33:55.398Z,80.98
2019-03-18T02:38:57.299Z,81.47
2019-03-18T02:43:58.839Z,81.11
2019-03-18T02:49:00.394Z,81.64
2019-03-18T02:54:01.922Z,80.97
2019-03-18T02:59:03.449Z,81.28
2019-03-18T03:04:04.940Z,80.97
2019-03-18T03:09:06.458Z,80.59
2019-03-18T03:14:07.960Z,79.70
2019-03-18T03:19:09.522Z,80.87
2019-03-18T03:24:11.156Z,80.82
2019-03-18T03:29:13.077Z,80.96
2019-03-18T03:34:14.761Z,81.65
2019-03-18T03:39:16.293Z,81.94
2019-03-18T03:44:17.870Z,81.97
2019-03-18T03:49:19.403Z,81.99
2019-03-18T03:54:20.946Z,81.70
2019-03-18T03:59:22.647Z,81.94
2019-03-18T04:04:24.180Z,81.90
2019-03-18T04:09:25.712Z,81.68
2019-03-18T04:14:27.231Z,81.46
2019-03-18T04:19:28.804Z,80.76
2019-03-18T04:24:30.302Z,80.76
2019-03-18T04:29:31.952Z,80.56
2019-03-18T04:34:33.488Z,80.05
2019-03-18T04:39:35.038Z,79.40
2019-03-18T04:44:36.594Z,78.92
2019-03-18T04:49:38.137Z,78.12
2019-03-18T04:54:39.647Z,78.42
2019-03-18T04:59:41.157Z,78.91
2019-03-18T05:04:42.704Z,78.12
2019-03-18T05:09:44.266Z,78.79
2019-03-18T05:14:45.806Z,79.27
2019-03-18T05:19:47.419Z,79.68
2019-03-18T05:24:49.033Z,79.62
2019-03-18T05:29:50.557Z,80.04
2019-03-18T05:34:52.085Z,79.94
2019-03-18T05:39:53.629Z,80.08
2019-03-18T05:44:55.155Z,80.10
2019-03-18T05:49:56.713Z,80.32
2019-03-18T05:54:58.271Z,80.18
2019-03-18T05:59:59.792Z,79.76
2019-03-18T06:05:01.349Z,78.83
2019-03-18T06:10:03.369Z,77.33
2019-03-18T06:15:05.796Z,76.65
2019-03-18T06:20:07.386Z,77.09
2019-03-18T06:25:09.287Z,76.77
2019-03-18T06:30:10.849Z,75.65
2019-03-18T06:35:12.815Z,74.67
2019-03-18T06:40:14.317Z,75.28
2019-03-18T06:45:15.911Z,75.23
2019-03-18T06:50:17.442Z,75.18
2019-03-18T06:55:19.102Z,75.66
2019-03-18T07:00:20.793Z,75.90
2019-03-18T07:05:22.419Z,75.85
2019-03-18T07:10:23.976Z,75.32
2019-03-18T07:15:25.591Z,73.61
2019-03-18T07:20:27.529Z,73.00
2019-03-18T07:25:29.123Z,73.78
2019-03-18T07:30:31.373Z,70.00
2019-03-18T07:35:32.944Z,74.59
2019-03-18T07:40:34.517Z,76.20
2019-03-18T07:45:36.170Z,76.83
2019-03-18T07:50:37.732Z,76.87
2019-03-18T07:55:39.302Z,77.02
2019-03-18T08:00:41.225Z,76.59
2019-03-18T08:05:42.739Z,75.97
2019-03-18T08:10:44.593Z,75.88
2019-03-18T08:15:46.120Z,75.99
2019-03-18T08:20:48.171Z,76.12
2019-03-18T08:25:49.677Z,76.30
2019-03-18T08:30:51.210Z,76.14
2019-03-18T08:35:52.719Z,76.44
2019-03-18T08:40:54.246Z,76.13
2019-03-18T08:45:55.804Z,75.75
2019-03-18T08:50:57.311Z,72.69
2019-03-18T08:55:58.836Z,71.88
2019-03-18T09:01:00.321Z,68.78
2019-03-18T09:06:01.942Z,70.24
2019-03-18T09:11:03.443Z,69.27
2019-03-18T09:16:05.333Z,68.38
2019-03-18T09:21:07.202Z,67.43
2019-03-18T09:26:08.797Z,65.35
2019-03-18T09:31:10.676Z,68.48
2019-03-18T09:36:12.199Z,69.60
2019-03-18T09:41:13.757Z,68.88
2019-03-18T09:46:15.291Z,65.93
2019-03-18T09:51:16.835Z,63.05
2019-03-18T09:56:18.369Z,58.92
2019-03-18T10:01:19.896Z,60.06
2019-03-18T10:06:22.008Z,64.98
2019-03-18T10:11:23.589Z,63.36
2019-03-18T10:16:25.090Z,63.92
2019-03-18T10:21:26.594Z,62.07
2019-03-18T10:26:28.174Z,60.48
2019-03-18T10:31:31.083Z,57.01
2019-03-18T10:36:32.592Z,61.85
2019-03-18T10:41:34.216Z,61.85
2019-03-18T10:46:36.218Z,58.88
2019-03-18T10:51:37.727Z,63.11
2019-03-18T10:56:41.275Z,63.06
2019-03-18T11:01:42.812Z,57.26
2019-03-18T11:06:44.335Z,62.16
2019-03-18T11:11:45.859Z,57.72
2019-03-18T11:16:47.355Z,57.04
2019-03-18T11:21:48.894Z,55.38
2019-03-18T11:26:50.402Z,51.32
2019-03-18T11:31:51.938Z,51.31
2019-03-18T11:36:53.437Z,54.36
2019-03-18T11:41:54.950Z,53.60
2019-03-18T11:46:56.546Z,49.35
2019-03-18T11:51:58.511Z,54.63
2019-03-18T11:57:00.106Z,54.76
2019-03-18T12:02:02.028Z,53.17
2019-03-18T12:07:03.643Z,54.12
2019-03-18T12:12:05.154Z,51.04
2019-03-18T12:17:06.670Z,58.83
2019-03-18T12:22:08.176Z,49.50
2019-03-18T12:27:09.784Z,51.65
2019-03-18T12:32:11.422Z,56.44
2019-03-18T12:37:12.958Z,50.30
2019-03-18T12:42:14.893Z,46.35
2019-03-18T12:47:16.736Z,44.84
2019-03-18T12:52:18.457Z,45.29
2019-03-18T12:57:20.069Z,43.95
2019-03-18T13:02:21.578Z,48.78
2019-03-18T13:07:23.397Z,49.97
2019-03-18T13:12:24.876Z,51.25
2019-03-18T13:17:26.870Z,47.73
2019-03-18T13:22:28.513Z,47.71
2019-03-18T13:27:30.301Z,48.89
2019-03-18T13:32:31.838Z,48.29
2019-03-18T13:37:33.379Z,50.51
2019-03-18T13:42:34.886Z,48.03
2019-03-18T13:47:36.446Z,51.08
2019-03-18T13:52:38.067Z,48.22
2019-03-18T13:57:39.686Z,49.35
2019-03-18T14:02:41.385Z,52.00
2019-03-18T14:07:43.014Z,45.64
2019-03-18T14:12:44.563Z,46.41
2019-03-18T14:17:46.180Z,47.90
2019-03-18T14:22:47.751Z,51.31
2019-03-18T14:27:49.351Z,56.01
2019-03-18T14:32:50.865Z,54.79
2019-03-18T14:37:52.804Z,55.06
2019-03-18T14:42:54.427Z,55.73
2019-03-18T14:47:55.931Z,55.49
2019-03-18T14:52:57.482Z,52.61
2019-03-18T14:57:59.042Z,49.72
2019-03-18T15:03:01.675Z,49.04
2019-03-18T15:08:03.266Z,50.51
2019-03-18T15:13:05.098Z,51.31
2019-03-18T15:18:06.741Z,49.94
2019-03-18T15:23:08.272Z,49.05
2019-03-18T15:28:09.924Z,43.52
2019-03-18T15:33:12.600Z,47.42
2019-03-18T15:38:14.124Z,48.26
2019-03-18T15:43:16.443Z,48.35
2019-03-18T15:48:18.079Z,49.06
2019-03-18T15:53:19.693Z,50.48
2019-03-18T15:58:21.339Z,50.31
2019-03-18T16:03:23.990Z,48.20
2019-03-18T16:08:25.773Z,47.88
2019-03-18T16:13:27.673Z,49.73
2019-03-18T16:18:29.282Z,49.28
2019-03-18T16:23:30.956Z,46.71
2019-03-18T16:28:32.620Z,46.90
2019-03-18T16:33:34.255Z,46.32
2019-03-18T16:38:35.814Z,50.31
2019-03-18T16:43:37.321Z,52.51
2019-03-18T16:48:38.943Z,51.91
2019-03-18T16:53:40.455Z,52.10
2019-03-18T16:58:44.118Z,51.73
2019-03-18T17:03:45.963Z,54.25
2019-03-18T17:08:47.474Z,51.38
2019-03-18T17:13:49.005Z,52.07
2019-03-18T17:18:51.027Z,53.06
2019-03-18T17:23:52.900Z,53.74
2019-03-18T17:28:54.416Z,55.88
2019-03-18T17:33:56.134Z,56.79
2019-03-18T17:38:57.698Z,56.24
2019-03-18T17:43:59.222Z,56.84
2019-03-18T17:49:00.875Z,57.10
2019-03-18T17:54:02.371Z,58.20
2019-03-18T17:59:03.924Z,57.72
2019-03-18T18:04:05.529Z,58.69
2019-03-18T18:09:07.202Z,58.71
2019-03-18T18:14:09.236Z,59.79
2019-03-18T18:19:11.204Z,60.53
2019-03-18T18:24:12.844Z,60.46
2019-03-18T18:29:14.721Z,60.72
2019-03-18T18:34:16.570Z,61.16
2019-03-18T18:39:18.547Z,62.42
2019-03-18T18:44:20.062Z,63.15
2019-03-18T18:49:21.672Z,62.53
2019-03-18T18:54:23.317Z,62.30
2019-03-18T18:59:24.875Z,62.82
2019-03-18T19:04:26.587Z,63.35
2019-03-18T19:09:28.112Z,63.63
2019-03-18T19:14:29.668Z,63.91
2019-03-18T19:19:32.329Z,63.95
2019-03-18T19:24:34.020Z,64.47
2019-03-18T19:29:36.774Z,64.86
2019-03-18T19:34:38.355Z,64.85
2019-03-18T19:39:40.011Z,64.98
2019-03-18T19:44:41.657Z,65.28
2019-03-18T19:49:43.598Z,65.72
2019-03-18T19:54:46.217Z,65.60
2019-03-18T19:59:47.870Z,65.57
2019-03-18T20:04:49.666Z,65.64
2019-03-18T20:09:51.394Z,65.98
2019-03-18T20:14:53.123Z,65.73
2019-03-18T20:19:54.879Z,65.91
2019-03-18T20:24:56.516Z,65.96
2019-03-18T20:29:58.543Z,65.93
2019-03-18T20:35:00.531Z,65.95
2019-03-18T20:40:02.156Z,66.27
2019-03-18T20:45:04.628Z,66.45
2019-03-18T20:50:08.076Z,66.70
2019-03-18T20:55:09.757Z,66.66
2019-03-18T21:00:12.747Z,66.88
2019-03-18T21:05:14.334Z,67.34
2019-03-18T21:10:15.970Z,67.73
2019-03-18T21:15:17.660Z,67.90
2019-03-18T21:20:19.202Z,67.49
2019-03-18T21:25:20.834Z,67.69
2019-03-18T21:30:22.502Z,67.95
2019-03-18T21:35:24.069Z,68.22
2019-03-18T21:40:26.181Z,68.51
2019-03-18T21:45:27.736Z,68.90
2019-03-18T21:50:29.408Z,69.04
2019-03-18T21:55:31.031Z,68.97
2019-03-18T22:00:32.669Z,69.26
2019-03-18T22:05:34.199Z,69.46
2019-03-18T22:10:35.992Z,69.52
2019-03-18T22:15:37.925Z,69.49
2019-03-18T22:20:39.598Z,69.85
2019-03-18T22:25:41.136Z,70.00
2019-03-18T22:30:42.876Z,70.19
2019-03-18T22:35:44.845Z,70.53
2019-03-18T22:40:46.447Z,70.43
2019-03-18T22:45:48.033Z,70.77
2019-03-18T22:50:49.781Z,70.96
2019-03-18T22:55:51.366Z,71.41
2019-03-18T23:00:52.990Z,71.79
2019-03-18T23:05:54.621Z,71.63
2019-03-18T23:10:56.599Z,71.21
2019-03-18T23:15:58.163Z,71.56
2019-03-18T23:21:00.152Z,72.09
2019-03-18T23:26:01.704Z,72.17
2019-03-18T23:31:03.275Z,72.46
2019-03-18T23:36:04.900Z,72.34
2019-03-18T23:41:06.878Z,72.46
2019-03-18T23:46:08.498Z,72.42
2019-03-18T23:51:10.082Z,72.57
2019-03-18T23:56:11.658Z,72.46
